MON13EQ EGGW-LEMH
Flight info
| Callsign | MON13EQ |
|---|---|
| Flight time | 1h 52m |
| Altitude | 35000 |
| Route | RODNI N27 ICTAM Q63 CPT UN859 SOPIL DCT BALAN DCT EVPOK DCT NARAK DCT GAI DCT LOMRA DCT ROCAN DCT GEANT N727 SARGO |
| Aircraft | A321/M-SDE3FGHIRWY/LB1 |
Departure
| Time | 2026-04-20 14:07 |
|---|---|
| Airport | London Luton Airport (EGGW) |
Arrival
| Time | 2026-04-20 15:59 |
|---|---|
| Airport | Menorca Airport (LEMH) |
| Time | Latitude | Longitude | Altitude | Speed | Heading |
|---|---|---|---|---|---|
| 2026-04-20 13:33 | 51.88021 | -0.37831 | 524 ft | 0 kts | 128° |
| 2026-04-20 13:53 | 51.88029 | -0.37847 | 523 ft | 4 kts | 128° |
| 2026-04-20 13:54 | 51.88042 | -0.37875 | 523 ft | 4 kts | 141° |
| 2026-04-20 13:54 | 51.88061 | -0.37880 | 523 ft | 4 kts | 214° |
| 2026-04-20 13:54 | 51.88080 | -0.37857 | 523 ft | 2 kts | 218° |
| 2026-04-20 13:54 | 51.88081 | -0.37855 | 523 ft | 0 kts | 218° |
| 2026-04-20 13:57 | 51.88080 | -0.37856 | 523 ft | 1 kts | 218° |
| 2026-04-20 13:57 | 51.88052 | -0.37891 | 523 ft | 8 kts | 218° |
| 2026-04-20 13:58 | 51.88004 | -0.37951 | 523 ft | 9 kts | 218° |
| 2026-04-20 13:58 | 51.87946 | -0.38008 | 523 ft | 10 kts | 202° |
| 2026-04-20 13:58 | 51.87873 | -0.38006 | 523 ft | 11 kts | 166° |
| 2026-04-20 13:58 | 51.87810 | -0.37932 | 523 ft | 12 kts | 129° |
| 2026-04-20 13:59 | 51.87768 | -0.37810 | 523 ft | 13 kts | 115° |
| 2026-04-20 13:59 | 51.87728 | -0.37668 | 520 ft | 16 kts | 115° |
| 2026-04-20 13:59 | 51.87680 | -0.37517 | 521 ft | 11 kts | 125° |
| 2026-04-20 13:59 | 51.87622 | -0.37460 | 523 ft | 10 kts | 164° |
| 2026-04-20 14:00 | 51.87541 | -0.37474 | 521 ft | 14 kts | 203° |
| 2026-04-20 14:00 | 51.87494 | -0.37597 | 523 ft | 13 kts | 253° |
| 2026-04-20 14:00 | 51.87468 | -0.37744 | 523 ft | 14 kts | 254° |
| 2026-04-20 14:00 | 51.87441 | -0.37901 | 523 ft | 15 kts | 255° |
| 2026-04-20 14:01 | 51.87410 | -0.38023 | 524 ft | 11 kts | 232° |
| 2026-04-20 14:01 | 51.87360 | -0.38073 | 523 ft | 2 kts | 207° |
| 2026-04-20 14:01 | 51.87358 | -0.38074 | 523 ft | 0 kts | 207° |
| 2026-04-20 14:04 | 51.87355 | -0.38077 | 523 ft | 2 kts | 207° |
| 2026-04-20 14:04 | 51.87321 | -0.38103 | 522 ft | 9 kts | 202° |
| 2026-04-20 14:04 | 51.87255 | -0.38123 | 523 ft | 9 kts | 208° |
| 2026-04-20 14:05 | 51.87226 | -0.38214 | 523 ft | 10 kts | 253° |
| 2026-04-20 14:05 | 51.87199 | -0.38302 | 520 ft | 7 kts | 303° |
| 2026-04-20 14:05 | 51.87217 | -0.38282 | 521 ft | 5 kts | 69° |
| 2026-04-20 14:05 | 51.87223 | -0.38240 | 522 ft | 3 kts | 76° |
| 2026-04-20 14:06 | 51.87227 | -0.38213 | 523 ft | 8 kts | 76° |
| 2026-04-20 14:06 | 51.87315 | -0.37699 | 522 ft | 86 kts | 74° |
| 2026-04-20 14:06 | 51.87535 | -0.36408 | 526 ft | 149 kts | 74° |
| 2026-04-20 14:06 | 51.87822 | -0.34661 | 1087 ft | 160 kts | 73° |
| 2026-04-20 14:07 | 51.88120 | -0.32951 | 2110 ft | 156 kts | 73° |
| 2026-04-20 14:07 | 51.88446 | -0.31184 | 2591 ft | 174 kts | 72° |
| 2026-04-20 14:07 | 51.88810 | -0.29216 | 2952 ft | 190 kts | 71° |
| 2026-04-20 14:07 | 51.89180 | -0.27067 | 3277 ft | 208 kts | 79° |
| 2026-04-20 14:08 | 51.89031 | -0.24584 | 3416 ft | 241 kts | 111° |
| 2026-04-20 14:08 | 51.87914 | -0.22442 | 3907 ft | 262 kts | 146° |
| 2026-04-20 14:08 | 51.86162 | -0.21590 | 4004 ft | 269 kts | 180° |
| 2026-04-20 14:08 | 51.84396 | -0.22502 | 4012 ft | 272 kts | 216° |
| 2026-04-20 14:09 | 51.83247 | -0.24891 | 4017 ft | 273 kts | 250° |
| 2026-04-20 14:09 | 51.82755 | -0.27847 | 4010 ft | 273 kts | 262° |
| 2026-04-20 14:09 | 51.82493 | -0.30907 | 4010 ft | 276 kts | 265° |
| 2026-04-20 14:09 | 51.82276 | -0.33973 | 4008 ft | 273 kts | 264° |
| 2026-04-20 14:10 | 51.82032 | -0.37023 | 4011 ft | 274 kts | 263° |
| 2026-04-20 14:10 | 51.81746 | -0.40063 | 4007 ft | 272 kts | 262° |
| 2026-04-20 14:10 | 51.81425 | -0.43068 | 4008 ft | 272 kts | 261° |
| 2026-04-20 14:10 | 51.81021 | -0.46105 | 4508 ft | 279 kts | 258° |
| 2026-04-20 14:11 | 51.80576 | -0.49165 | 4909 ft | 280 kts | 257° |
| 2026-04-20 14:11 | 51.80115 | -0.52205 | 5007 ft | 279 kts | 257° |
| 2026-04-20 14:11 | 51.79647 | -0.55253 | 5001 ft | 277 kts | 256° |
| 2026-04-20 14:11 | 51.79181 | -0.58261 | 5009 ft | 277 kts | 256° |
| 2026-04-20 14:12 | 51.78712 | -0.61288 | 5006 ft | 276 kts | 256° |
| 2026-04-20 14:12 | 51.78247 | -0.64291 | 5010 ft | 277 kts | 257° |
| 2026-04-20 14:12 | 51.77777 | -0.67320 | 5007 ft | 278 kts | 257° |
| 2026-04-20 14:12 | 51.77307 | -0.70351 | 5004 ft | 280 kts | 257° |
| 2026-04-20 14:13 | 51.76836 | -0.73396 | 5000 ft | 279 kts | 257° |
| 2026-04-20 14:13 | 51.76356 | -0.76421 | 5006 ft | 279 kts | 253° |
| 2026-04-20 14:13 | 51.75559 | -0.79262 | 5007 ft | 278 kts | 237° |
| 2026-04-20 14:13 | 51.74349 | -0.81682 | 5000 ft | 277 kts | 223° |
| 2026-04-20 14:14 | 51.72975 | -0.83878 | 5000 ft | 277 kts | 224° |
| 2026-04-20 14:14 | 51.71608 | -0.86077 | 5010 ft | 280 kts | 224° |
| 2026-04-20 14:14 | 51.70217 | -0.88317 | 5333 ft | 284 kts | 224° |
| 2026-04-20 14:14 | 51.68844 | -0.90525 | 6288 ft | 280 kts | 224° |
| 2026-04-20 14:15 | 51.67460 | -0.92750 | 7164 ft | 283 kts | 225° |
| 2026-04-20 14:15 | 51.66054 | -0.95004 | 7969 ft | 286 kts | 225° |
| 2026-04-20 14:15 | 51.64619 | -0.97307 | 8755 ft | 288 kts | 226° |
| 2026-04-20 14:15 | 51.63213 | -0.99562 | 9568 ft | 290 kts | 226° |
| 2026-04-20 14:16 | 51.61782 | -1.01854 | 10351 ft | 292 kts | 226° |
| 2026-04-20 14:16 | 51.60305 | -1.04218 | 10698 ft | 310 kts | 228° |
| 2026-04-20 14:16 | 51.58720 | -1.06758 | 10848 ft | 333 kts | 227° |
| 2026-04-20 14:16 | 51.57023 | -1.09477 | 10980 ft | 355 kts | 226° |
| 2026-04-20 14:17 | 51.55219 | -1.12322 | 11275 ft | 370 kts | 223° |
| 2026-04-20 14:17 | 51.53164 | -1.14850 | 11889 ft | 376 kts | 214° |
| 2026-04-20 14:17 | 51.50822 | -1.16790 | 12539 ft | 382 kts | 203° |
| 2026-04-20 14:17 | 51.48241 | -1.17900 | 13212 ft | 387 kts | 190° |
| 2026-04-20 14:18 | 51.45535 | -1.18053 | 13880 ft | 393 kts | 176° |
| 2026-04-20 14:18 | 51.42836 | -1.17184 | 14481 ft | 400 kts | 163° |
| 2026-04-20 14:18 | 51.40258 | -1.15435 | 15009 ft | 405 kts | 156° |
| 2026-04-20 14:18 | 51.37682 | -1.13530 | 15570 ft | 410 kts | 156° |
| 2026-04-20 14:19 | 51.35074 | -1.11604 | 16098 ft | 416 kts | 156° |
| 2026-04-20 14:19 | 51.32433 | -1.09660 | 16608 ft | 421 kts | 157° |
| 2026-04-20 14:19 | 51.29756 | -1.07699 | 17122 ft | 426 kts | 158° |
| 2026-04-20 14:19 | 51.27054 | -1.05728 | 17664 ft | 431 kts | 158° |
| 2026-04-20 14:20 | 51.24304 | -1.03728 | 18184 ft | 436 kts | 158° |
| 2026-04-20 14:20 | 51.21529 | -1.01703 | 18653 ft | 441 kts | 158° |
| 2026-04-20 14:20 | 51.18722 | -0.99657 | 19123 ft | 445 kts | 158° |
| 2026-04-20 14:20 | 51.15890 | -0.97592 | 19570 ft | 449 kts | 158° |
| 2026-04-20 14:21 | 51.13034 | -0.95510 | 20023 ft | 453 kts | 159° |
| 2026-04-20 14:21 | 51.10152 | -0.93415 | 20498 ft | 457 kts | 159° |
| 2026-04-20 14:21 | 51.07246 | -0.91310 | 20933 ft | 461 kts | 159° |
| 2026-04-20 14:21 | 51.04316 | -0.89197 | 21366 ft | 465 kts | 159° |
| 2026-04-20 14:22 | 51.01356 | -0.87065 | 21798 ft | 469 kts | 160° |
| 2026-04-20 14:22 | 50.98372 | -0.84917 | 22212 ft | 472 kts | 160° |
| 2026-04-20 14:22 | 50.95375 | -0.82759 | 22642 ft | 476 kts | 160° |
| 2026-04-20 14:22 | 50.92351 | -0.80582 | 23037 ft | 479 kts | 160° |
| 2026-04-20 14:23 | 50.89300 | -0.78393 | 23449 ft | 483 kts | 160° |
| 2026-04-20 14:23 | 50.86236 | -0.76163 | 23832 ft | 487 kts | 158° |
| 2026-04-20 14:23 | 50.83293 | -0.73423 | 24175 ft | 494 kts | 151° |
| 2026-04-20 14:23 | 50.80408 | -0.70462 | 24529 ft | 496 kts | 151° |
| 2026-04-20 14:24 | 50.77497 | -0.67492 | 24876 ft | 499 kts | 151° |
| 2026-04-20 14:24 | 50.74611 | -0.64561 | 25204 ft | 501 kts | 151° |
| 2026-04-20 14:24 | 50.71672 | -0.61581 | 25551 ft | 503 kts | 152° |
| 2026-04-20 14:24 | 50.68721 | -0.58595 | 25861 ft | 506 kts | 152° |
| 2026-04-20 14:25 | 50.65752 | -0.55594 | 26187 ft | 508 kts | 152° |
| 2026-04-20 14:25 | 50.62775 | -0.52589 | 26513 ft | 509 kts | 152° |
| 2026-04-20 14:25 | 50.59785 | -0.49573 | 26899 ft | 511 kts | 152° |
| 2026-04-20 14:25 | 50.56789 | -0.46554 | 27240 ft | 513 kts | 152° |
| 2026-04-20 14:26 | 50.53781 | -0.43527 | 27554 ft | 515 kts | 152° |
| 2026-04-20 14:26 | 50.50765 | -0.40495 | 27957 ft | 514 kts | 152° |
| 2026-04-20 14:26 | 50.47759 | -0.37474 | 28402 ft | 513 kts | 152° |
| 2026-04-20 14:26 | 50.44754 | -0.34457 | 28844 ft | 512 kts | 152° |
| 2026-04-20 14:27 | 50.41751 | -0.31453 | 29238 ft | 511 kts | 152° |
| 2026-04-20 14:27 | 50.38763 | -0.28468 | 29748 ft | 508 kts | 152° |
| 2026-04-20 14:27 | 50.35784 | -0.25496 | 30234 ft | 506 kts | 153° |
| 2026-04-20 14:27 | 50.32821 | -0.22546 | 30612 ft | 505 kts | 153° |
| 2026-04-20 14:28 | 50.29856 | -0.19602 | 30951 ft | 505 kts | 152° |
| 2026-04-20 14:28 | 50.26892 | -0.16666 | 31276 ft | 505 kts | 152° |
| 2026-04-20 14:28 | 50.23920 | -0.13731 | 31592 ft | 505 kts | 152° |
| 2026-04-20 14:28 | 50.20956 | -0.10807 | 31912 ft | 505 kts | 152° |
| 2026-04-20 14:29 | 50.17992 | -0.07881 | 32219 ft | 504 kts | 152° |
| 2026-04-20 14:29 | 50.15036 | -0.04962 | 32616 ft | 501 kts | 152° |
| 2026-04-20 14:29 | 50.12071 | -0.02115 | 32955 ft | 498 kts | 155° |
| 2026-04-20 14:29 | 50.08953 | 0.00156 | 33270 ft | 493 kts | 164° |
| 2026-04-20 14:30 | 50.05696 | 0.01724 | 33532 ft | 488 kts | 172° |
| 2026-04-20 14:30 | 50.02395 | 0.02999 | 33790 ft | 489 kts | 171° |
| 2026-04-20 14:30 | 49.99095 | 0.04286 | 34072 ft | 489 kts | 171° |
| 2026-04-20 14:30 | 49.95788 | 0.05584 | 34319 ft | 489 kts | 170° |
| 2026-04-20 14:31 | 49.92501 | 0.06882 | 34646 ft | 487 kts | 170° |
| 2026-04-20 14:31 | 49.89226 | 0.08178 | 34952 ft | 485 kts | 170° |
| 2026-04-20 14:31 | 49.86009 | 0.09451 | 35169 ft | 484 kts | 170° |
| 2026-04-20 14:31 | 49.82743 | 0.10736 | 35231 ft | 484 kts | 171° |
| 2026-04-20 14:32 | 49.76224 | 0.13272 | 35228 ft | 483 kts | 171° |
| 2026-04-20 14:32 | 49.69719 | 0.15798 | 35220 ft | 481 kts | 170° |
| 2026-04-20 14:33 | 49.63236 | 0.18344 | 35226 ft | 481 kts | 170° |
| 2026-04-20 14:33 | 49.56770 | 0.20962 | 35225 ft | 481 kts | 169° |
| 2026-04-20 14:34 | 49.50296 | 0.23593 | 35207 ft | 481 kts | 169° |
| 2026-04-20 14:34 | 49.43827 | 0.26191 | 35205 ft | 480 kts | 169° |
| 2026-04-20 14:35 | 49.37371 | 0.28762 | 35212 ft | 479 kts | 169° |
| 2026-04-20 14:35 | 49.30919 | 0.31329 | 35212 ft | 479 kts | 169° |
| 2026-04-20 14:36 | 49.24490 | 0.33976 | 35205 ft | 478 kts | 168° |
| 2026-04-20 14:36 | 49.18077 | 0.36724 | 35197 ft | 478 kts | 168° |
| 2026-04-20 14:37 | 49.11668 | 0.39457 | 35193 ft | 478 kts | 168° |
| 2026-04-20 14:37 | 49.05259 | 0.42143 | 35167 ft | 478 kts | 169° |
| 2026-04-20 14:38 | 48.98845 | 0.44809 | 35187 ft | 478 kts | 169° |
| 2026-04-20 14:38 | 48.92432 | 0.47483 | 35188 ft | 478 kts | 169° |
| 2026-04-20 14:39 | 48.86017 | 0.50149 | 35181 ft | 478 kts | 169° |
| 2026-04-20 14:39 | 48.79607 | 0.52809 | 35179 ft | 478 kts | 169° |
| 2026-04-20 14:40 | 48.73235 | 0.55386 | 35172 ft | 477 kts | 170° |
| 2026-04-20 14:40 | 48.66766 | 0.57892 | 35175 ft | 477 kts | 170° |
| 2026-04-20 14:41 | 48.60379 | 0.60350 | 35149 ft | 477 kts | 171° |
| 2026-04-20 14:41 | 48.53945 | 0.62838 | 35146 ft | 477 kts | 171° |
| 2026-04-20 14:42 | 48.47517 | 0.65386 | 35145 ft | 478 kts | 170° |
| 2026-04-20 14:42 | 48.41086 | 0.68031 | 35143 ft | 479 kts | 170° |
| 2026-04-20 14:43 | 48.34662 | 0.70667 | 35146 ft | 479 kts | 170° |
| 2026-04-20 14:43 | 48.28212 | 0.73272 | 35142 ft | 480 kts | 171° |
| 2026-04-20 14:44 | 48.21761 | 0.75855 | 35116 ft | 480 kts | 171° |
| 2026-04-20 14:44 | 48.15296 | 0.78393 | 35126 ft | 480 kts | 171° |
| 2026-04-20 14:45 | 48.08825 | 0.80922 | 35137 ft | 481 kts | 171° |
| 2026-04-20 14:45 | 48.02353 | 0.83459 | 35133 ft | 481 kts | 171° |
| 2026-04-20 14:46 | 47.95875 | 0.85996 | 35130 ft | 481 kts | 171° |
| 2026-04-20 14:46 | 47.89398 | 0.88525 | 35132 ft | 481 kts | 171° |
| 2026-04-20 14:47 | 47.82924 | 0.91030 | 35128 ft | 481 kts | 171° |
| 2026-04-20 14:48 | 47.73215 | 0.94785 | 35113 ft | 480 kts | 171° |
| 2026-04-20 14:48 | 47.66753 | 0.97290 | 35121 ft | 480 kts | 171° |
| 2026-04-20 14:49 | 47.60291 | 0.99781 | 35118 ft | 479 kts | 171° |
| 2026-04-20 14:49 | 47.53843 | 1.02251 | 35100 ft | 479 kts | 171° |
| 2026-04-20 14:50 | 47.47398 | 1.04714 | 35111 ft | 478 kts | 171° |
| 2026-04-20 14:50 | 47.40920 | 1.06374 | 35107 ft | 467 kts | 185° |
| 2026-04-20 14:51 | 47.34459 | 1.06244 | 35086 ft | 464 kts | 187° |
| 2026-04-20 14:51 | 47.28005 | 1.06088 | 35091 ft | 464 kts | 187° |
| 2026-04-20 14:52 | 47.21555 | 1.05939 | 35089 ft | 464 kts | 187° |
| 2026-04-20 14:52 | 47.16195 | 1.05818 | 35078 ft | 463 kts | 187° |
| 2026-04-20 14:53 | 47.09752 | 1.05672 | 35083 ft | 463 kts | 187° |
| 2026-04-20 14:53 | 47.03308 | 1.05510 | 35083 ft | 463 kts | 187° |
| 2026-04-20 14:54 | 46.96876 | 1.05307 | 35081 ft | 462 kts | 188° |
| 2026-04-20 14:54 | 46.90459 | 1.05006 | 35077 ft | 461 kts | 188° |
| 2026-04-20 14:55 | 46.84045 | 1.04694 | 35078 ft | 461 kts | 188° |
| 2026-04-20 14:55 | 46.77638 | 1.04418 | 35076 ft | 461 kts | 188° |
| 2026-04-20 14:56 | 46.71220 | 1.04158 | 35069 ft | 461 kts | 188° |
| 2026-04-20 14:56 | 46.64809 | 1.03898 | 35068 ft | 461 kts | 188° |
| 2026-04-20 14:57 | 46.58407 | 1.03623 | 35064 ft | 461 kts | 188° |
| 2026-04-20 14:57 | 46.51990 | 1.03533 | 35043 ft | 465 kts | 181° |
| 2026-04-20 14:58 | 46.45561 | 1.05339 | 35043 ft | 472 kts | 173° |
| 2026-04-20 14:58 | 46.39159 | 1.07501 | 35041 ft | 472 kts | 173° |
| 2026-04-20 14:59 | 46.32758 | 1.09646 | 35028 ft | 472 kts | 173° |
| 2026-04-20 14:59 | 46.26358 | 1.11777 | 35033 ft | 472 kts | 173° |
| 2026-04-20 15:00 | 46.19996 | 1.13883 | 35026 ft | 472 kts | 173° |
| 2026-04-20 15:00 | 46.13598 | 1.16000 | 34997 ft | 472 kts | 173° |
| 2026-04-20 15:01 | 46.07151 | 1.18130 | 35002 ft | 472 kts | 173° |
| 2026-04-20 15:01 | 46.00751 | 1.20235 | 35013 ft | 472 kts | 173° |
| 2026-04-20 15:02 | 45.94353 | 1.22338 | 34991 ft | 472 kts | 173° |
| 2026-04-20 15:02 | 45.88001 | 1.24421 | 34999 ft | 471 kts | 173° |
| 2026-04-20 15:03 | 45.81606 | 1.26507 | 35004 ft | 471 kts | 173° |
| 2026-04-20 15:03 | 45.75220 | 1.28595 | 34990 ft | 471 kts | 173° |
| 2026-04-20 15:04 | 45.68823 | 1.30681 | 34973 ft | 471 kts | 173° |
| 2026-04-20 15:04 | 45.62434 | 1.32761 | 34978 ft | 471 kts | 173° |
| 2026-04-20 15:05 | 45.56041 | 1.34840 | 34953 ft | 471 kts | 172° |
| 2026-04-20 15:05 | 45.49652 | 1.36900 | 34962 ft | 471 kts | 173° |
| 2026-04-20 15:06 | 45.43265 | 1.38953 | 34971 ft | 471 kts | 173° |
| 2026-04-20 15:06 | 45.36875 | 1.41016 | 34958 ft | 470 kts | 172° |
| 2026-04-20 15:07 | 45.30491 | 1.43075 | 34958 ft | 470 kts | 172° |
| 2026-04-20 15:07 | 45.24112 | 1.45125 | 34960 ft | 470 kts | 172° |
| 2026-04-20 15:08 | 45.17728 | 1.47162 | 34941 ft | 470 kts | 172° |
| 2026-04-20 15:08 | 45.11348 | 1.49190 | 34951 ft | 470 kts | 172° |
| 2026-04-20 15:09 | 45.04988 | 1.51221 | 34958 ft | 469 kts | 172° |
| 2026-04-20 15:09 | 44.98618 | 1.53254 | 34976 ft | 469 kts | 172° |
| 2026-04-20 15:10 | 44.92292 | 1.55252 | 34971 ft | 469 kts | 172° |
| 2026-04-20 15:10 | 44.85924 | 1.57261 | 34974 ft | 469 kts | 172° |
| 2026-04-20 15:11 | 44.79561 | 1.59268 | 34975 ft | 469 kts | 172° |
| 2026-04-20 15:11 | 44.73199 | 1.61270 | 34976 ft | 468 kts | 172° |
| 2026-04-20 15:12 | 44.66837 | 1.63262 | 34974 ft | 468 kts | 172° |
| 2026-04-20 15:12 | 44.60471 | 1.65260 | 34973 ft | 468 kts | 172° |
| 2026-04-20 15:13 | 44.54116 | 1.67253 | 34971 ft | 468 kts | 172° |
| 2026-04-20 15:13 | 44.47762 | 1.69229 | 34979 ft | 468 kts | 172° |
| 2026-04-20 15:14 | 44.41408 | 1.71202 | 34980 ft | 467 kts | 172° |
| 2026-04-20 15:14 | 44.35065 | 1.73174 | 34978 ft | 467 kts | 172° |
| 2026-04-20 15:15 | 44.28730 | 1.75126 | 34982 ft | 465 kts | 173° |
| 2026-04-20 15:15 | 44.22371 | 1.76687 | 34982 ft | 463 kts | 176° |
| 2026-04-20 15:16 | 44.16004 | 1.77960 | 34979 ft | 462 kts | 177° |
| 2026-04-20 15:16 | 44.09644 | 1.79261 | 34982 ft | 462 kts | 176° |
| 2026-04-20 15:17 | 44.03291 | 1.80649 | 34984 ft | 462 kts | 176° |
| 2026-04-20 15:17 | 43.96969 | 1.82071 | 34956 ft | 453 kts | 176° |
| 2026-04-20 15:18 | 43.90876 | 1.83116 | 34959 ft | 440 kts | 181° |
| 2026-04-20 15:18 | 43.84796 | 1.83611 | 34966 ft | 434 kts | 182° |
| 2026-04-20 15:19 | 43.78783 | 1.84035 | 34959 ft | 432 kts | 182° |
| 2026-04-20 15:19 | 43.72786 | 1.84575 | 34966 ft | 432 kts | 181° |
| 2026-04-20 15:20 | 43.66794 | 1.85181 | 34965 ft | 432 kts | 181° |
| 2026-04-20 15:20 | 43.60809 | 1.85776 | 34943 ft | 431 kts | 181° |
| 2026-04-20 15:21 | 43.54823 | 1.86357 | 34958 ft | 431 kts | 181° |
| 2026-04-20 15:21 | 43.48841 | 1.86927 | 34952 ft | 431 kts | 181° |
| 2026-04-20 15:22 | 43.42860 | 1.87502 | 34953 ft | 431 kts | 181° |
| 2026-04-20 15:22 | 43.36885 | 1.88072 | 34940 ft | 430 kts | 181° |
| 2026-04-20 15:23 | 43.30924 | 1.88643 | 34946 ft | 429 kts | 181° |
| 2026-04-20 15:23 | 43.24960 | 1.89216 | 34953 ft | 429 kts | 181° |
| 2026-04-20 15:24 | 43.19005 | 1.89788 | 34943 ft | 429 kts | 181° |
| 2026-04-20 15:24 | 43.13062 | 1.90349 | 34949 ft | 428 kts | 181° |
| 2026-04-20 15:25 | 43.07152 | 1.90908 | 34966 ft | 428 kts | 181° |
| 2026-04-20 15:25 | 43.01170 | 1.91468 | 34972 ft | 428 kts | 181° |
| 2026-04-20 15:26 | 42.95268 | 1.92026 | 34960 ft | 428 kts | 180° |
| 2026-04-20 15:26 | 42.89323 | 1.92603 | 34961 ft | 428 kts | 180° |
| 2026-04-20 15:27 | 42.83504 | 1.93161 | 34974 ft | 428 kts | 180° |
| 2026-04-20 15:27 | 42.77551 | 1.93710 | 34974 ft | 429 kts | 180° |
| 2026-04-20 15:28 | 42.71603 | 1.94384 | 34991 ft | 432 kts | 174° |
| 2026-04-20 15:28 | 42.65875 | 1.97043 | 35001 ft | 442 kts | 155° |
| 2026-04-20 15:29 | 42.60868 | 2.01974 | 34984 ft | 448 kts | 143° |
| 2026-04-20 15:29 | 42.56074 | 2.07363 | 34989 ft | 448 kts | 144° |
| 2026-04-20 15:30 | 42.51260 | 2.12751 | 34997 ft | 448 kts | 144° |
| 2026-04-20 15:30 | 42.46452 | 2.18131 | 34991 ft | 448 kts | 144° |
| 2026-04-20 15:31 | 42.41638 | 2.23526 | 35003 ft | 449 kts | 143° |
| 2026-04-20 15:31 | 42.36823 | 2.28911 | 34995 ft | 449 kts | 143° |
| 2026-04-20 15:32 | 42.31998 | 2.34288 | 34984 ft | 450 kts | 144° |
| 2026-04-20 15:32 | 42.27163 | 2.39649 | 34981 ft | 450 kts | 144° |
| 2026-04-20 15:33 | 42.22282 | 2.45062 | 34886 ft | 463 kts | 144° |
| 2026-04-20 15:33 | 42.19774 | 2.47839 | 34742 ft | 469 kts | 144° |
| 2026-04-20 15:33 | 42.17240 | 2.50646 | 34599 ft | 472 kts | 144° |
| 2026-04-20 15:33 | 42.14699 | 2.53453 | 34443 ft | 473 kts | 143° |
| 2026-04-20 15:34 | 42.12154 | 2.56258 | 34293 ft | 473 kts | 143° |
| 2026-04-20 15:34 | 42.09609 | 2.59061 | 34156 ft | 473 kts | 143° |
| 2026-04-20 15:34 | 42.07096 | 2.61830 | 34005 ft | 473 kts | 143° |
| 2026-04-20 15:34 | 42.04514 | 2.64677 | 33847 ft | 473 kts | 143° |
| 2026-04-20 15:35 | 42.01997 | 2.67447 | 33689 ft | 474 kts | 143° |
| 2026-04-20 15:35 | 41.99442 | 2.70252 | 33526 ft | 475 kts | 143° |
| 2026-04-20 15:35 | 41.96881 | 2.73060 | 33363 ft | 476 kts | 143° |
| 2026-04-20 15:35 | 41.94285 | 2.75908 | 33178 ft | 477 kts | 143° |
| 2026-04-20 15:36 | 41.91725 | 2.78658 | 33034 ft | 477 kts | 145° |
| 2026-04-20 15:36 | 41.89070 | 2.81327 | 32848 ft | 477 kts | 147° |
| 2026-04-20 15:36 | 41.86358 | 2.83907 | 32689 ft | 477 kts | 148° |
| 2026-04-20 15:36 | 41.83627 | 2.86433 | 32531 ft | 478 kts | 148° |
| 2026-04-20 15:37 | 41.80882 | 2.88959 | 32371 ft | 478 kts | 148° |
| 2026-04-20 15:37 | 41.78151 | 2.91494 | 32215 ft | 479 kts | 148° |
| 2026-04-20 15:37 | 41.75421 | 2.94060 | 32059 ft | 479 kts | 148° |
| 2026-04-20 15:37 | 41.72696 | 2.96647 | 31913 ft | 480 kts | 147° |
| 2026-04-20 15:38 | 41.69936 | 2.99280 | 31747 ft | 481 kts | 147° |
| 2026-04-20 15:38 | 41.67246 | 3.01850 | 31596 ft | 482 kts | 147° |
| 2026-04-20 15:38 | 41.64518 | 3.04452 | 31449 ft | 482 kts | 147° |
| 2026-04-20 15:38 | 41.61785 | 3.07055 | 31306 ft | 482 kts | 147° |
| 2026-04-20 15:39 | 41.59050 | 3.09650 | 31153 ft | 482 kts | 148° |
| 2026-04-20 15:39 | 41.56308 | 3.12244 | 30997 ft | 483 kts | 148° |
| 2026-04-20 15:39 | 41.53567 | 3.14832 | 30867 ft | 483 kts | 148° |
| 2026-04-20 15:39 | 41.50822 | 3.17419 | 30688 ft | 483 kts | 148° |
| 2026-04-20 15:40 | 41.48067 | 3.19971 | 30542 ft | 483 kts | 149° |
| 2026-04-20 15:40 | 41.42400 | 3.24760 | 30256 ft | 482 kts | 152° |
| 2026-04-20 15:40 | 41.40459 | 3.26306 | 30152 ft | 482 kts | 153° |
| 2026-04-20 15:41 | 41.37573 | 3.28578 | 30016 ft | 482 kts | 153° |
| 2026-04-20 15:41 | 41.34690 | 3.30857 | 29844 ft | 482 kts | 152° |
| 2026-04-20 15:41 | 41.31850 | 3.33132 | 29676 ft | 483 kts | 152° |
| 2026-04-20 15:41 | 41.28947 | 3.35491 | 29497 ft | 483 kts | 151° |
| 2026-04-20 15:42 | 41.26123 | 3.37812 | 29332 ft | 484 kts | 151° |
| 2026-04-20 15:42 | 41.23262 | 3.40170 | 29157 ft | 484 kts | 151° |
| 2026-04-20 15:42 | 41.20400 | 3.42528 | 28995 ft | 484 kts | 151° |
| 2026-04-20 15:42 | 41.17534 | 3.44883 | 28839 ft | 485 kts | 151° |
| 2026-04-20 15:43 | 41.14661 | 3.47230 | 28663 ft | 485 kts | 151° |
| 2026-04-20 15:43 | 41.11784 | 3.49569 | 28503 ft | 485 kts | 152° |
| 2026-04-20 15:43 | 41.08901 | 3.51906 | 28351 ft | 486 kts | 152° |
| 2026-04-20 15:43 | 41.06016 | 3.54239 | 28169 ft | 486 kts | 152° |
| 2026-04-20 15:44 | 41.03126 | 3.56572 | 27997 ft | 487 kts | 152° |
| 2026-04-20 15:44 | 41.00228 | 3.58912 | 27844 ft | 488 kts | 151° |
| 2026-04-20 15:44 | 40.97332 | 3.61252 | 27691 ft | 488 kts | 151° |
| 2026-04-20 15:44 | 40.94433 | 3.63598 | 27528 ft | 489 kts | 151° |
| 2026-04-20 15:45 | 40.91528 | 3.65947 | 27378 ft | 489 kts | 151° |
| 2026-04-20 15:45 | 40.88625 | 3.68287 | 27226 ft | 490 kts | 151° |
| 2026-04-20 15:45 | 40.85711 | 3.70630 | 27073 ft | 490 kts | 152° |
| 2026-04-20 15:45 | 40.82797 | 3.72971 | 26894 ft | 491 kts | 151° |
| 2026-04-20 15:46 | 40.79876 | 3.75316 | 26743 ft | 491 kts | 151° |
| 2026-04-20 15:46 | 40.76951 | 3.77661 | 26594 ft | 492 kts | 151° |
| 2026-04-20 15:46 | 40.74031 | 3.80003 | 26443 ft | 492 kts | 151° |
| 2026-04-20 15:46 | 40.71108 | 3.82348 | 26299 ft | 492 kts | 151° |
| 2026-04-20 15:47 | 40.68180 | 3.84695 | 26156 ft | 493 kts | 151° |
| 2026-04-20 15:47 | 40.65245 | 3.87044 | 26004 ft | 493 kts | 151° |
| 2026-04-20 15:47 | 40.62320 | 3.89381 | 25621 ft | 490 kts | 151° |
| 2026-04-20 15:47 | 40.59415 | 3.91699 | 24495 ft | 486 kts | 152° |
| 2026-04-20 15:48 | 40.56548 | 3.93981 | 23174 ft | 478 kts | 152° |
| 2026-04-20 15:48 | 40.53726 | 3.96226 | 21793 ft | 470 kts | 151° |
| 2026-04-20 15:48 | 40.50940 | 3.98376 | 20511 ft | 458 kts | 156° |
| 2026-04-20 15:48 | 40.48027 | 3.99877 | 19489 ft | 439 kts | 168° |
| 2026-04-20 15:49 | 40.45171 | 4.00842 | 19086 ft | 413 kts | 168° |
| 2026-04-20 15:49 | 40.42412 | 4.01812 | 18077 ft | 408 kts | 168° |
| 2026-04-20 15:49 | 40.39695 | 4.02794 | 16997 ft | 402 kts | 167° |
| 2026-04-20 15:49 | 40.37020 | 4.03772 | 15951 ft | 396 kts | 167° |
| 2026-04-20 15:50 | 40.34390 | 4.04728 | 15051 ft | 387 kts | 167° |
| 2026-04-20 15:50 | 40.31881 | 4.05635 | 14856 ft | 359 kts | 167° |
| 2026-04-20 15:50 | 40.29570 | 4.06467 | 14689 ft | 330 kts | 168° |
| 2026-04-20 15:50 | 40.27408 | 4.07238 | 14187 ft | 317 kts | 168° |
| 2026-04-20 15:51 | 40.25304 | 4.07980 | 13485 ft | 310 kts | 168° |
| 2026-04-20 15:51 | 40.23229 | 4.08706 | 12695 ft | 307 kts | 168° |
| 2026-04-20 15:51 | 40.21177 | 4.09421 | 11913 ft | 304 kts | 167° |
| 2026-04-20 15:51 | 40.19141 | 4.10130 | 11151 ft | 302 kts | 167° |
| 2026-04-20 15:52 | 40.17121 | 4.10837 | 10407 ft | 299 kts | 166° |
| 2026-04-20 15:52 | 40.15120 | 4.11540 | 9678 ft | 297 kts | 166° |
| 2026-04-20 15:52 | 40.13136 | 4.12239 | 8935 ft | 294 kts | 166° |
| 2026-04-20 15:53 | 40.09256 | 4.13678 | 7491 ft | 286 kts | 156° |
| 2026-04-20 15:53 | 40.07758 | 4.15296 | 6832 ft | 281 kts | 121° |
| 2026-04-20 15:53 | 40.07195 | 4.17683 | 6134 ft | 276 kts | 87° |
| 2026-04-20 15:53 | 40.07485 | 4.20145 | 5469 ft | 271 kts | 76° |
| 2026-04-20 15:54 | 40.07818 | 4.22539 | 4826 ft | 266 kts | 88° |
| 2026-04-20 15:54 | 40.07379 | 4.24818 | 4177 ft | 259 kts | 127° |
| 2026-04-20 15:54 | 40.06040 | 4.26158 | 3936 ft | 238 kts | 165° |
| 2026-04-20 15:54 | 40.04432 | 4.26105 | 3665 ft | 229 kts | 202° |
| 2026-04-20 15:55 | 40.02999 | 4.25296 | 3390 ft | 223 kts | 197° |
| 2026-04-20 15:55 | 40.01494 | 4.24950 | 3111 ft | 217 kts | 188° |
| 2026-04-20 15:55 | 40.00011 | 4.24686 | 2849 ft | 211 kts | 189° |
| 2026-04-20 15:55 | 39.98591 | 4.24405 | 2566 ft | 201 kts | 189° |
| 2026-04-20 15:56 | 39.97245 | 4.24129 | 2311 ft | 189 kts | 189° |
| 2026-04-20 15:56 | 39.96031 | 4.23879 | 2061 ft | 170 kts | 189° |
| 2026-04-20 15:56 | 39.94895 | 4.23645 | 1833 ft | 158 kts | 189° |
| 2026-04-20 15:56 | 39.93830 | 4.23425 | 1629 ft | 153 kts | 189° |
| 2026-04-20 15:57 | 39.92804 | 4.23214 | 1434 ft | 149 kts | 189° |
| 2026-04-20 15:57 | 39.91772 | 4.22999 | 1239 ft | 147 kts | 189° |
| 2026-04-20 15:57 | 39.90777 | 4.22791 | 1033 ft | 144 kts | 189° |
| 2026-04-20 15:57 | 39.89794 | 4.22585 | 842 ft | 143 kts | 190° |
| 2026-04-20 15:58 | 39.88814 | 4.22386 | 658 ft | 141 kts | 188° |
| 2026-04-20 15:58 | 39.87841 | 4.22184 | 469 ft | 142 kts | 188° |
| 2026-04-20 15:58 | 39.86864 | 4.21991 | 308 ft | 139 kts | 189° |
| 2026-04-20 15:58 | 39.86109 | 4.21835 | 306 ft | 69 kts | 189° |
| 2026-04-20 15:59 | 39.85858 | 4.21782 | 301 ft | 25 kts | 189° |
| 2026-04-20 15:59 | 39.85681 | 4.21755 | 294 ft | 26 kts | 180° |
| 2026-04-20 15:59 | 39.85502 | 4.21800 | 286 ft | 21 kts | 159° |
| 2026-04-20 15:59 | 39.85409 | 4.21856 | 283 ft | 12 kts | 134° |
| 2026-04-20 16:00 | 39.85431 | 4.21931 | 289 ft | 10 kts | 22° |
| 2026-04-20 16:00 | 39.85504 | 4.21949 | 285 ft | 13 kts | 8° |
| 2026-04-20 16:00 | 39.85618 | 4.21972 | 288 ft | 18 kts | 9° |
| 2026-04-20 16:00 | 39.85739 | 4.21996 | 293 ft | 17 kts | 9° |
| 2026-04-20 16:01 | 39.85855 | 4.22020 | 296 ft | 16 kts | 8° |
| 2026-04-20 16:01 | 39.85968 | 4.22044 | 296 ft | 17 kts | 9° |
| 2026-04-20 16:01 | 39.86085 | 4.22067 | 297 ft | 14 kts | 8° |
| 2026-04-20 16:01 | 39.86177 | 4.22093 | 298 ft | 11 kts | 35° |
| 2026-04-20 16:02 | 39.86184 | 4.22208 | 290 ft | 13 kts | 97° |
| 2026-04-20 16:02 | 39.86251 | 4.22273 | 288 ft | 14 kts | 8° |
| 2026-04-20 16:02 | 39.86347 | 4.22292 | 288 ft | 13 kts | 9° |
| 2026-04-20 16:02 | 39.86419 | 4.22307 | 292 ft | 6 kts | 9° |
| 2026-04-20 16:03 | 39.86433 | 4.22343 | 288 ft | 6 kts | 99° |
| 2026-04-20 16:03 | 39.86426 | 4.22384 | 286 ft | 0 kts | 101° |
| 2026-04-20 16:03 | 39.86426 | 4.22389 | 286 ft | 1 kts | 99° |
| 2026-04-20 16:03 | 39.86425 | 4.22390 | 286 ft | 0 kts | 99° |